Time;durP1;ratioP1;P1;durP2;ratioP2;P2;SDS_P1;SDS_P2;PMS_P1;PMS_P2;Temp;Humidity;BMP_temperature;BMP_pressure;BME280_temperature;BME280_humidity;BME280_pressure;Samples;Min_cycle;Max_cycle;Signal;HPM_P1;HPM_P2
2023/10/22 00:02:25;;;;;;;5.93;0.67;;;10.80;99.90;;;;;;5010573;28;20188;-68
2023/10/22 00:04:51;;;;;;;4.30;0.83;;;10.90;99.90;;;;;;5009655;28;20223;-70
2023/10/22 00:07:18;;;;;;;6.00;0.83;;;10.80;99.90;;;;;;5010383;28;20185;-69
2023/10/22 00:09:44;;;;;;;3.07;0.70;;;10.80;99.90;;;;;;5010189;28;20192;-67
2023/10/22 00:12:11;;;;;;;2.87;0.80;;;10.80;99.90;;;;;;5010263;28;20258;-70
2023/10/22 00:14:37;;;;;;;6.20;1.00;;;10.90;99.90;;;;;;5009523;28;20717;-69
2023/10/22 00:17:03;;;;;;;2.23;0.70;;;10.90;99.90;;;;;;5010247;28;20177;-67
2023/10/22 00:19:28;;;;;;;4.00;0.80;;;10.80;99.90;;;;;;5009105;28;20260;-68
2023/10/22 00:21:54;;;;;;;2.70;1.03;;;10.80;99.90;;;;;;5010198;28;20259;-67
2023/10/22 00:24:20;;;;;;;4.83;0.90;;;10.90;99.90;;;;;;5009669;28;20205;-67
2023/10/22 00:26:46;;;;;;;6.37;0.87;;;10.90;99.90;;;;;;5010084;28;20192;-67
2023/10/22 00:29:12;;;;;;;6.50;1.03;;;10.90;99.90;;;;;;5010535;28;20180;-67
2023/10/22 00:31:37;;;;;;;6.73;1.17;;;10.90;99.90;;;;;;5010091;28;20216;-68
2023/10/22 00:34:03;;;;;;;2.40;0.80;;;10.80;99.90;;;;;;5008366;28;20204;-68
2023/10/22 00:36:29;;;;;;;5.17;1.03;;;10.80;99.90;;;;;;5010276;28;20223;-68
2023/10/22 00:38:54;;;;;;;5.47;1.10;;;10.80;99.90;;;;;;5009985;28;20204;-70
2023/10/22 00:41:20;;;;;;;4.17;0.67;;;10.70;99.90;;;;;;5010203;28;20188;-70
2023/10/22 00:43:45;;;;;;;3.27;0.80;;;10.60;99.90;;;;;;5009393;28;20192;-70
2023/10/22 00:46:21;;;;;;;1.87;1.00;;;10.50;99.90;;;;;;5010167;28;20541;-70
2023/10/22 00:48:47;;;;;;;5.70;1.73;;;10.50;99.90;;;;;;5009885;28;20232;-70
2023/10/22 00:51:14;;;;;;;4.37;1.37;;;10.50;99.90;;;;;;5013212;28;20258;-70
2023/10/22 00:53:42;;;;;;;7.07;1.37;;;10.40;99.90;;;;;;5021194;28;20179;-70
2023/10/22 00:56:07;;;;;;;2.87;0.70;;;10.20;99.90;;;;;;5013604;28;20181;-70
2023/10/22 00:58:37;;;;;;;2.93;0.80;;;10.20;99.90;;;;;;5013560;28;20181;-70
2023/10/22 01:01:07;;;;;;;3.03;1.00;;;10.20;99.90;;;;;;5013705;28;20227;-70
2023/10/22 01:03:33;;;;;;;2.90;0.70;;;10.20;99.90;;;;;;5012849;28;20215;-70
2023/10/22 01:05:59;;;;;;;4.07;0.97;;;10.30;99.90;;;;;;5012112;28;20181;-70
2023/10/22 01:08:24;;;;;;;4.60;0.87;;;10.30;99.90;;;;;;5012375;28;20279;-69
2023/10/22 01:10:50;;;;;;;4.50;1.10;;;10.30;99.90;;;;;;5013818;28;20212;-70
2023/10/22 01:13:16;;;;;;;3.73;0.80;;;10.40;99.90;;;;;;5012690;28;20208;-70
2023/10/22 01:15:41;;;;;;;4.27;0.90;;;10.40;99.90;;;;;;5013142;28;20224;-70
2023/10/22 01:18:07;;;;;;;2.63;0.73;;;10.40;99.90;;;;;;5013357;28;20180;-70
2023/10/22 01:20:33;;;;;;;3.87;0.80;;;10.40;99.90;;;;;;5013163;28;20188;-70
2023/10/22 01:22:59;;;;;;;4.23;0.90;;;10.40;99.90;;;;;;5020774;28;20181;-70
2023/10/22 01:25:25;;;;;;;2.03;0.60;;;10.30;99.90;;;;;;5013065;28;20196;-70
2023/10/22 01:27:51;;;;;;;4.13;1.07;;;10.30;99.90;;;;;;5013201;28;20184;-70
2023/10/22 01:30:16;;;;;;;5.97;0.70;;;10.20;99.90;;;;;;5019124;28;20208;-70
2023/10/22 01:32:42;;;;;;;9.57;1.13;;;10.20;99.90;;;;;;5014812;28;20703;-70
2023/10/22 01:35:08;;;;;;;7.90;1.50;;;10.10;99.90;;;;;;5012308;28;20579;-70
2023/10/22 01:37:36;;;;;;;6.33;1.23;;;10.00;99.90;;;;;;5012869;28;20183;-70
2023/10/22 01:40:03;;;;;;;2.63;0.80;;;9.90;99.90;;;;;;5012990;28;20204;-70
2023/10/22 01:42:29;;;;;;;3.63;0.90;;;9.90;99.90;;;;;;5013245;28;20649;-71
2023/10/22 01:44:55;;;;;;;4.00;0.80;;;9.70;99.90;;;;;;5012161;28;20296;-70
2023/10/22 01:47:20;;;;;;;6.40;1.07;;;9.70;99.90;;;;;;5012683;28;20306;-70
2023/10/22 01:49:47;;;;;;;6.07;1.23;;;9.60;99.90;;;;;;5012574;28;20192;-69
2023/10/22 01:52:12;;;;;;;4.77;1.20;;;9.60;99.90;;;;;;5012737;28;20212;-69
2023/10/22 01:54:39;;;;;;;3.70;1.10;;;9.60;99.90;;;;;;5011911;28;20218;-71
2023/10/22 01:57:04;;;;;;;5.53;0.90;;;9.60;99.90;;;;;;5012478;28;20196;-71
2023/10/22 01:59:30;;;;;;;5.83;0.80;;;9.70;99.90;;;;;;5012630;28;20235;-70
2023/10/22 02:01:56;;;;;;;5.17;0.90;;;9.60;99.90;;;;;;5012117;28;20189;-70
2023/10/22 02:04:22;;;;;;;3.20;1.07;;;9.60;99.90;;;;;;5010489;28;20216;-70
2023/10/22 02:06:47;;;;;;;5.23;0.87;;;9.60;99.90;;;;;;5012418;28;20279;-69
2023/10/22 02:09:15;;;;;;;4.10;0.90;;;9.50;99.90;;;;;;5012431;28;20176;-71
2023/10/22 02:11:40;;;;;;;7.80;0.90;;;9.50;99.90;;;;;;5011019;28;20200;-69
2023/10/22 02:14:06;;;;;;;4.13;0.73;;;9.40;99.90;;;;;;5015752;28;20616;-70
2023/10/22 02:16:31;;;;;;;2.40;0.77;;;9.40;99.90;;;;;;5015785;28;20715;-70
2023/10/22 02:18:57;;;;;;;3.43;0.57;;;9.40;99.90;;;;;;5012090;28;20185;-71
2023/10/22 02:21:26;;;;;;;4.03;0.77;;;9.30;99.90;;;;;;5012059;28;20191;-69
2023/10/22 02:23:52;;;;;;;2.57;0.67;;;9.40;99.90;;;;;;5011193;28;20573;-70
2023/10/22 02:26:18;;;;;;;5.90;0.90;;;9.40;99.90;;;;;;5011938;28;20185;-70
2023/10/22 02:28:44;;;;;;;5.43;0.90;;;9.20;99.90;;;;;;5011971;28;20267;-70
2023/10/22 02:31:10;;;;;;;3.70;0.90;;;9.30;99.90;;;;;;5011921;28;20287;-70
2023/10/22 02:33:37;;;;;;;4.30;0.80;;;9.30;99.90;;;;;;5009813;28;20334;-70
2023/10/22 02:36:04;;;;;;;5.20;1.23;;;9.30;99.90;;;;;;5011844;28;20181;-69
2023/10/22 02:38:29;;;;;;;4.63;0.70;;;9.30;99.90;;;;;;5011867;28;20654;-70
2023/10/22 02:40:55;;;;;;;5.30;1.30;;;9.30;99.90;;;;;;5010428;28;20192;-71
2023/10/22 02:43:20;;;;;;;5.53;1.47;;;9.40;99.90;;;;;;5011059;28;20669;-70
2023/10/22 02:45:53;;;;;;;5.57;0.73;;;9.30;99.90;;;;;;5011512;28;20205;-70
2023/10/22 02:48:19;;;;;;;5.53;0.90;;;9.40;99.90;;;;;;5011583;28;20173;-71
2023/10/22 02:50:45;;;;;;;6.93;2.40;;;9.40;99.90;;;;;;5011272;28;20207;-70
2023/10/22 02:53:11;;;;;;;3.93;0.90;;;9.40;99.90;;;;;;5010776;28;20256;-70
2023/10/22 02:55:36;;;;;;;5.10;1.30;;;9.50;99.90;;;;;;5011257;28;20610;-69
2023/10/22 02:58:02;;;;;;;5.33;1.00;;;9.50;99.90;;;;;;5011391;28;20184;-70
2023/10/22 03:00:28;;;;;;;3.13;0.90;;;9.50;99.90;;;;;;5011389;28;20664;-70
2023/10/22 03:02:53;;;;;;;7.77;1.43;;;9.60;99.90;;;;;;5010787;28;20180;-70
2023/10/22 03:05:19;;;;;;;5.60;0.80;;;9.70;99.90;;;;;;5011080;28;20678;-70
2023/10/22 03:07:45;;;;;;;7.27;1.20;;;9.70;99.90;;;;;;5011053;28;20179;-70
2023/10/22 03:10:10;;;;;;;10.23;1.63;;;9.70;99.90;;;;;;5011246;28;20185;-70
2023/10/22 03:12:36;;;;;;;10.03;0.97;;;9.60;99.90;;;;;;5010171;28;20208;-69
2023/10/22 03:15:03;;;;;;;7.23;1.20;;;9.70;99.90;;;;;;5010225;28;20223;-69
2023/10/22 03:17:30;;;;;;;3.50;0.97;;;9.80;99.90;;;;;;5011306;28;20177;-71
2023/10/22 03:19:55;;;;;;;9.53;0.97;;;9.90;99.90;;;;;;5009554;28;20168;-71
2023/10/22 03:22:21;;;;;;;4.90;1.03;;;9.90;99.90;;;;;;5010936;28;20196;-70
2023/10/22 03:24:50;;;;;;;5.27;0.93;;;9.90;99.90;;;;;;5009990;28;20311;-70
2023/10/22 03:27:17;;;;;;;11.70;1.30;;;9.90;99.90;;;;;;5010934;28;20184;-70
2023/10/22 03:29:42;;;;;;;4.77;1.10;;;9.90;99.90;;;;;;5009546;28;20207;-70
2023/10/22 03:32:09;;;;;;;3.23;1.00;;;9.90;99.90;;;;;;5010851;28;20681;-69
2023/10/22 03:34:35;;;;;;;3.13;0.80;;;10.00;99.90;;;;;;5016729;28;20211;-70
2023/10/22 03:37:04;;;;;;;2.73;0.83;;;10.00;99.90;;;;;;5010809;28;20549;-71
2023/10/22 03:39:30;;;;;;;4.27;1.00;;;10.00;99.90;;;;;;5010904;28;20173;-70
2023/10/22 03:41:56;;;;;;;9.33;1.80;;;10.00;99.90;;;;;;5010613;28;20183;-71
2023/10/22 03:44:21;;;;;;;8.23;0.80;;;10.00;99.90;;;;;;5010271;28;20204;-70
2023/10/22 03:46:48;;;;;;;4.27;1.10;;;10.00;99.90;;;;;;5010597;28;20176;-71
2023/10/22 03:49:14;;;;;;;2.40;1.00;;;9.90;99.90;;;;;;5010677;28;20677;-68
2023/10/22 03:51:39;;;;;;;8.77;1.20;;;9.90;99.90;;;;;;5018420;28;20238;-68
2023/10/22 03:54:05;;;;;;;9.13;1.10;;;9.90;99.90;;;;;;5008678;28;20196;-69
2023/10/22 03:56:31;;;;;;;9.23;1.23;;;9.90;99.90;;;;;;5018192;28;20590;-68
2023/10/22 03:58:56;;;;;;;3.87;1.40;;;10.00;99.90;;;;;;5010869;28;20176;-69
2023/10/22 04:01:22;;;;;;;7.63;1.30;;;10.00;99.90;;;;;;5010530;28;20704;-67
2023/10/22 04:03:47;;;;;;;5.37;1.13;;;10.00;99.90;;;;;;5017730;28;20266;-66
2023/10/22 04:06:13;;;;;;;7.33;1.30;;;10.00;99.90;;;;;;5010317;28;20185;-67
2023/10/22 04:08:38;;;;;;;4.73;1.07;;;10.00;99.90;;;;;;5018465;28;20179;-70
2023/10/22 04:11:04;;;;;;;4.90;1.07;;;10.00;99.90;;;;;;5010303;28;20713;-66
2023/10/22 04:13:30;;;;;;;5.30;1.10;;;10.00;99.90;;;;;;5017793;28;20195;-67
2023/10/22 04:15:56;;;;;;;4.13;0.80;;;10.10;99.90;;;;;;5010211;28;20200;-67
2023/10/22 04:18:22;;;;;;;4.83;1.00;;;10.10;99.90;;;;;;5010252;28;20239;-67
2023/10/22 04:20:47;;;;;;;2.90;0.87;;;10.10;99.90;;;;;;5009984;28;20268;-66
2023/10/22 04:23:13;;;;;;;3.67;1.03;;;10.20;99.90;;;;;;5009924;28;20173;-67
2023/10/22 04:25:40;;;;;;;5.33;0.83;;;10.20;99.90;;;;;;5013955;28;20214;-67
2023/10/22 04:28:09;;;;;;;7.27;0.83;;;10.20;99.90;;;;;;5014320;28;20195;-66
2023/10/22 04:30:36;;;;;;;3.37;1.17;;;10.20;99.90;;;;;;5012874;28;20735;-67
2023/10/22 04:33:03;;;;;;;4.17;1.00;;;10.20;99.90;;;;;;5005602;28;20230;-68
2023/10/22 04:35:29;;;;;;;5.10;1.13;;;10.30;99.90;;;;;;5013881;28;20219;-69
2023/10/22 04:37:55;;;;;;;5.23;0.90;;;10.30;99.90;;;;;;5014085;28;20180;-69
2023/10/22 04:40:21;;;;;;;6.73;1.10;;;10.30;99.90;;;;;;5014179;28;20223;-69
2023/10/22 04:42:46;;;;;;;5.03;1.00;;;10.30;99.90;;;;;;5015272;28;20196;-68
2023/10/22 04:45:12;;;;;;;3.83;1.10;;;10.30;99.90;;;;;;5025556;28;20239;-68
2023/10/22 04:47:38;;;;;;;5.50;1.20;;;10.40;99.90;;;;;;5015612;28;20218;-71
2023/10/22 04:50:05;;;;;;;8.50;1.10;;;10.30;99.90;;;;;;5013771;28;20207;-70
2023/10/22 04:52:31;;;;;;;6.10;1.37;;;10.30;99.90;;;;;;5021967;28;20212;-70
2023/10/22 04:54:58;;;;;;;4.90;1.17;;;10.30;99.90;;;;;;5012948;28;20228;-70
2023/10/22 04:57:24;;;;;;;7.50;1.23;;;10.40;99.90;;;;;;5013802;28;20231;-71
2023/10/22 04:59:50;;;;;;;11.37;1.60;;;10.40;99.90;;;;;;5013721;28;20184;-70
2023/10/22 05:02:15;;;;;;;3.90;1.20;;;10.30;99.90;;;;;;5012299;28;20185;-70
2023/10/22 05:04:41;;;;;;;3.17;1.10;;;10.40;99.90;;;;;;5020801;28;20573;-70
2023/10/22 05:07:06;;;;;;;6.03;1.70;;;10.30;99.90;;;;;;5016585;28;20661;-69
2023/10/22 05:09:33;;;;;;;14.07;4.43;;;10.30;99.90;;;;;;5017244;28;20187;-69
2023/10/22 05:11:59;;;;;;;12.60;1.40;;;10.40;99.90;;;;;;5013316;28;20200;-71
2023/10/22 05:14:24;;;;;;;8.23;2.13;;;10.40;99.90;;;;;;5012688;28;20592;-70
2023/10/22 05:16:52;;;;;;;4.37;1.30;;;10.40;99.90;;;;;;5013011;28;20184;-70
2023/10/22 05:19:18;;;;;;;9.13;1.30;;;10.40;99.90;;;;;;5013276;28;20169;-70
2023/10/22 05:21:43;;;;;;;3.77;1.03;;;10.40;99.90;;;;;;5012974;28;20193;-70
2023/10/22 05:24:09;;;;;;;7.73;1.10;;;10.50;99.90;;;;;;5012744;28;20208;-70
2023/10/22 05:26:35;;;;;;;5.57;1.17;;;10.50;99.90;;;;;;5013304;28;20561;-70
2023/10/22 05:29:00;;;;;;;5.40;1.30;;;10.60;99.90;;;;;;5011817;28;20172;-70
2023/10/22 05:31:26;;;;;;;11.23;3.03;;;10.60;99.90;;;;;;5013161;28;20283;-70
2023/10/22 05:33:52;;;;;;;5.80;1.43;;;10.70;99.90;;;;;;5012202;28;20296;-70
2023/10/22 05:36:19;;;;;;;6.40;1.50;;;10.70;99.90;;;;;;5012301;28;20215;-70
2023/10/22 05:38:46;;;;;;;9.23;1.67;;;10.70;99.90;;;;;;5013126;28;20176;-70
2023/10/22 05:41:22;;;;;;;6.20;1.80;;;10.70;99.90;;;;;;5013207;28;20272;-70
2023/10/22 05:43:52;;;;;;;6.13;1.63;;;10.70;99.90;;;;;;5012167;28;20184;-69
2023/10/22 05:46:18;;;;;;;4.50;0.90;;;10.70;99.90;;;;;;5012825;28;20173;-69
2023/10/22 05:48:44;;;;;;;8.07;1.30;;;10.80;99.90;;;;;;5013142;28;20798;-70
2023/10/22 05:51:10;;;;;;;3.57;1.07;;;10.80;99.90;;;;;;5012374;28;20208;-69
2023/10/22 05:53:35;;;;;;;4.37;1.30;;;10.80;99.90;;;;;;5011942;28;20188;-70
2023/10/22 05:56:01;;;;;;;5.13;1.10;;;10.90;99.90;;;;;;5012416;28;20181;-70
2023/10/22 05:58:27;;;;;;;7.50;1.30;;;10.90;99.90;;;;;;5012659;28;20243;-70
2023/10/22 06:00:53;;;;;;;4.20;1.23;;;10.90;99.90;;;;;;5012484;28;20215;-70
2023/10/22 06:03:19;;;;;;;6.60;1.53;;;11.00;99.90;;;;;;5011761;28;20420;-70
2023/10/22 06:05:45;;;;;;;3.97;1.03;;;11.00;99.90;;;;;;5010525;28;20479;-70
2023/10/22 06:08:11;;;;;;;9.07;0.90;;;11.00;99.90;;;;;;5016976;28;20179;-70
2023/10/22 06:10:40;;;;;;;5.83;1.20;;;11.00;99.90;;;;;;5014793;28;20648;-69
2023/10/22 06:13:06;;;;;;;14.87;2.97;;;11.00;99.90;;;;;;5003334;28;20172;-70
2023/10/22 06:15:32;;;;;;;10.90;2.17;;;11.10;99.90;;;;;;5011030;28;20311;-70
2023/10/22 06:17:57;;;;;;;12.67;2.23;;;11.00;99.90;;;;;;5010501;28;20263;-70
2023/10/22 06:20:23;;;;;;;6.53;1.67;;;11.00;99.90;;;;;;5011123;28;20188;-70
2023/10/22 06:22:48;;;;;;;4.93;1.50;;;11.00;99.90;;;;;;5010610;28;20184;-70
2023/10/22 06:25:14;;;;;;;8.83;1.53;;;11.00;99.90;;;;;;5011252;28;20623;-70
2023/10/22 06:27:40;;;;;;;10.30;1.93;;;11.00;99.90;;;;;;5010944;28;20642;-70
2023/10/22 06:30:06;;;;;;;8.47;1.77;;;11.00;99.90;;;;;;5011198;28;20184;-68
2023/10/22 06:32:32;;;;;;;7.07;2.53;;;11.10;99.90;;;;;;5010904;28;20666;-67
2023/10/22 06:34:57;;;;;;;8.07;2.93;;;11.10;99.90;;;;;;5010192;28;20203;-67
2023/10/22 06:37:23;;;;;;;7.17;2.03;;;11.20;99.90;;;;;;5011299;28;20796;-67
2023/10/22 06:39:51;;;;;;;11.13;3.40;;;11.20;99.90;;;;;;5011085;28;20686;-69
2023/10/22 06:42:16;;;;;;;5.70;1.90;;;11.20;99.90;;;;;;5010787;28;20187;-68
2023/10/22 06:44:43;;;;;;;5.10;1.77;;;11.20;99.90;;;;;;5010093;28;20204;-68
2023/10/22 06:47:09;;;;;;;9.73;1.47;;;11.20;99.90;;;;;;5009748;28;20650;-66
2023/10/22 06:49:35;;;;;;;6.10;1.70;;;11.20;99.90;;;;;;5010777;28;20247;-68
2023/10/22 06:52:00;;;;;;;8.37;2.00;;;11.10;99.90;;;;;;5010342;28;20295;-67
2023/10/22 06:54:26;;;;;;;10.90;2.23;;;11.20;99.90;;;;;;5010065;28;20196;-68
2023/10/22 06:56:52;;;;;;;6.83;1.40;;;11.20;99.90;;;;;;5010636;28;20192;-68
2023/10/22 06:59:17;;;;;;;6.10;1.77;;;11.20;99.90;;;;;;5010577;28;20181;-68
2023/10/22 07:01:43;;;;;;;8.30;1.57;;;11.00;99.90;;;;;;5010429;28;20192;-67
2023/10/22 07:04:09;;;;;;;3.57;1.40;;;11.00;99.90;;;;;;5010124;28;20208;-67
2023/10/22 07:06:34;;;;;;;4.10;1.60;;;11.00;99.90;;;;;;5010426;28;20389;-67
2023/10/22 07:09:00;;;;;;;7.90;1.70;;;11.10;99.90;;;;;;5010377;28;20172;-68
2023/10/22 07:11:26;;;;;;;5.00;1.17;;;11.10;99.90;;;;;;5010544;28;20223;-68
2023/10/22 07:13:52;;;;;;;4.37;1.30;;;11.10;99.90;;;;;;5009477;28;20689;-67
2023/10/22 07:16:17;;;;;;;5.80;1.70;;;11.10;99.90;;;;;;5010344;28;20275;-67
2023/10/22 07:18:43;;;;;;;7.63;1.70;;;11.20;99.90;;;;;;5018327;28;20215;-68
2023/10/22 07:21:09;;;;;;;3.17;1.13;;;11.10;99.90;;;;;;5010340;28;20207;-68
2023/10/22 07:23:34;;;;;;;9.37;1.30;;;11.20;99.90;;;;;;5009351;28;20188;-67
2023/10/22 07:26:00;;;;;;;6.40;1.60;;;11.20;99.90;;;;;;5010251;28;20188;-68
2023/10/22 07:28:25;;;;;;;8.37;1.77;;;11.00;99.90;;;;;;5010369;28;20188;-68
2023/10/22 07:30:52;;;;;;;5.47;1.50;;;11.10;99.90;;;;;;5009754;28;20295;-68
2023/10/22 07:33:18;;;;;;;3.83;1.27;;;11.10;99.90;;;;;;5009664;28;20176;-68
2023/10/22 07:35:57;;;;;;;6.27;2.13;;;11.10;99.90;;;;;;5009926;28;20640;-68
2023/10/22 07:38:24;;;;;;;9.07;2.60;;;11.10;99.90;;;;;;5010217;28;20234;-68
2023/10/22 07:40:55;;;;;;;7.83;2.90;;;11.10;99.90;;;;;;5018135;28;20241;-68
2023/10/22 07:43:21;;;;;;;7.63;2.17;;;11.00;99.90;;;;;;5017432;28;20184;-68
2023/10/22 07:45:47;;;;;;;37.73;13.73;;;11.00;99.90;;;;;;5009851;28;20266;-68
2023/10/22 07:48:12;;;;;;;65.97;50.23;;;11.10;99.90;;;;;;5010031;28;20267;-68
2023/10/22 07:50:38;;;;;;;9.10;3.97;;;11.20;99.90;;;;;;5009712;28;20184;-68
2023/10/22 07:53:03;;;;;;;8.67;2.70;;;11.40;99.90;;;;;;5009779;28;20184;-68
2023/10/22 07:55:29;;;;;;;27.67;20.87;;;11.50;99.90;;;;;;5009772;28;20208;-69
2023/10/22 07:57:54;;;;;;;7.23;2.40;;;11.70;99.90;;;;;;5009397;28;20354;-69
2023/10/22 08:00:20;;;;;;;9.53;3.53;;;11.70;99.90;;;;;;5009757;28;20227;-68
2023/10/22 08:02:45;;;;;;;4.20;1.67;;;11.80;99.90;;;;;;5009532;28;20597;-68
2023/10/22 08:05:11;;;;;;;2.93;1.47;;;11.90;99.90;;;;;;5009163;28;20581;-68
2023/10/22 08:07:37;;;;;;;6.03;2.57;;;12.00;99.90;;;;;;5009829;28;20196;-68
2023/10/22 08:10:02;;;;;;;23.23;16.13;;;12.00;99.90;;;;;;5018222;28;20188;-68
2023/10/22 08:12:28;;;;;;;35.47;26.13;;;12.10;99.90;;;;;;5009520;28;20208;-69
2023/10/22 08:14:53;;;;;;;5.80;2.17;;;12.10;99.90;;;;;;5008586;28;20292;-69
2023/10/22 08:17:19;;;;;;;12.67;4.30;;;12.10;99.90;;;;;;5009644;28;20190;-69
2023/10/22 08:19:44;;;;;;;10.93;4.13;;;12.10;99.90;;;;;;5009509;28;20269;-69
2023/10/22 08:22:10;;;;;;;6.33;1.93;;;12.10;99.90;;;;;;5009529;28;20609;-67
2023/10/22 08:24:35;;;;;;;4.90;1.57;;;12.10;99.90;;;;;;5008816;28;20286;-68
2023/10/22 08:27:02;;;;;;;20.97;8.60;;;12.30;99.90;;;;;;5009515;28;20185;-67
2023/10/22 08:29:27;;;;;;;5.23;2.37;;;12.30;99.90;;;;;;5008989;28;20195;-67
2023/10/22 08:31:53;;;;;;;2.87;1.67;;;12.40;99.90;;;;;;5007446;28;20212;-67
2023/10/22 08:34:20;;;;;;;11.20;3.80;;;12.50;99.90;;;;;;5006884;28;20204;-68
2023/10/22 08:36:45;;;;;;;5.63;1.63;;;12.50;99.90;;;;;;5015284;28;20686;-67
2023/10/22 08:39:11;;;;;;;4.73;1.20;;;12.50;99.90;;;;;;5006322;28;20250;-67
2023/10/22 08:41:47;;;;;;;6.63;1.97;;;12.50;99.90;;;;;;5007524;28;20276;-67
2023/10/22 08:44:15;;;;;;;7.47;2.70;;;12.40;99.90;;;;;;5000078;28;20294;-69
2023/10/22 08:46:42;;;;;;;7.57;1.80;;;12.40;99.90;;;;;;5007861;28;20188;-68
2023/10/22 08:49:09;;;;;;;5.00;1.80;;;12.40;99.90;;;;;;5009212;28;20196;-70
2023/10/22 08:51:35;;;;;;;7.47;1.63;;;12.40;99.90;;;;;;5009418;28;20200;-68
2023/10/22 08:54:02;;;;;;;6.67;1.60;;;12.40;99.90;;;;;;5008506;28;20271;-69
2023/10/22 08:56:27;;;;;;;5.50;2.10;;;12.30;99.90;;;;;;5009279;28;20185;-68
2023/10/22 08:58:53;;;;;;;7.60;1.90;;;12.20;99.90;;;;;;5009135;28;20195;-69
2023/10/22 09:01:18;;;;;;;5.43;1.20;;;12.30;99.90;;;;;;5008990;28;20211;-69
2023/10/22 09:03:44;;;;;;;3.10;1.30;;;12.40;99.90;;;;;;5008678;28;20216;-68
2023/10/22 09:06:09;;;;;;;5.50;1.37;;;12.50;99.90;;;;;;5008610;28;20177;-68
2023/10/22 09:08:43;;;;;;;4.73;1.30;;;12.60;99.90;;;;;;5009185;28;20187;-69
2023/10/22 09:11:12;;;;;;;5.17;1.30;;;12.60;99.90;;;;;;5010676;28;20216;-69
2023/10/22 09:13:38;;;;;;;4.87;1.67;;;12.70;99.90;;;;;;5011943;28;20649;-71
2023/10/22 09:16:04;;;;;;;3.80;1.37;;;12.70;99.90;;;;;;5020688;28;20191;-71
2023/10/22 09:18:29;;;;;;;3.67;1.40;;;12.70;99.90;;;;;;5011722;28;20181;-71
2023/10/22 09:21:06;;;;;;;2.70;1.30;;;12.70;99.90;;;;;;5012344;28;20187;-70
2023/10/22 09:23:32;;;;;;;7.27;2.03;;;12.70;99.90;;;;;;5011785;28;20195;-70
2023/10/22 09:25:59;;;;;;;7.37;1.80;;;12.70;99.90;;;;;;5011045;28;20234;-71
2023/10/22 09:28:29;;;;;;;6.17;1.50;;;12.70;99.90;;;;;;5012685;28;20555;-70
2023/10/22 09:30:55;;;;;;;5.57;1.80;;;12.90;99.90;;;;;;5012435;28;20260;-70
2023/10/22 09:33:33;;;;;;;7.20;2.40;;;13.10;99.90;;;;;;5011912;28;20169;-70
2023/10/22 09:36:07;;;;;;;5.63;2.40;;;13.40;99.90;;;;;;5012182;28;20215;-70
2023/10/22 09:38:47;;;;;;;6.27;2.57;;;13.60;99.90;;;;;;5012626;28;20443;-71
2023/10/22 09:41:29;;;;;;;5.50;2.93;;;13.70;99.90;;;;;;5012255;28;20245;-70
2023/10/22 09:43:59;;;;;;;5.90;2.73;;;13.80;99.90;;;;;;5011544;28;20208;-71
2023/10/22 09:46:35;;;;;;;4.20;2.33;;;13.80;99.90;;;;;;5012267;28;20203;-70
2023/10/22 09:49:03;;;;;;;7.13;3.77;;;13.80;99.90;;;;;;5010718;28;20179;-71
2023/10/22 09:51:35;;;;;;;3.53;1.60;;;13.90;99.90;;;;;;5010743;28;20215;-71
2023/10/22 09:54:05;;;;;;;5.67;1.77;;;13.90;99.90;;;;;;5011378;28;20200;-70
2023/10/22 09:56:32;;;;;;;4.10;1.03;;;13.90;99.90;;;;;;5011975;28;20280;-68
2023/10/22 09:59:07;;;;;;;0.83;0.37;;;14.00;99.90;;;;;;5011817;28;20251;-71
2023/10/22 10:01:34;;;;;;;0.80;0.50;;;13.90;99.90;;;;;;5011869;28;20719;-70
2023/10/22 10:04:03;;;;;;;1.30;0.30;;;14.00;99.90;;;;;;5011116;28;20208;-71
2023/10/22 10:06:30;;;;;;;2.20;0.40;;;14.00;99.90;;;;;;5011512;28;20177;-71
2023/10/22 10:08:57;;;;;;;1.20;0.40;;;14.20;99.90;;;;;;5011758;28;20258;-70
2023/10/22 10:11:24;;;;;;;1.90;0.40;;;14.20;99.90;;;;;;5011927;28;20646;-68
2023/10/22 10:13:50;;;;;;;1.00;0.30;;;14.20;99.90;;;;;;5010571;28;20556;-69
2023/10/22 10:16:15;;;;;;;0.63;0.30;;;14.30;99.90;;;;;;5011587;28;20180;-70
2023/10/22 10:19:09;;;;;;;0.63;0.30;;;14.40;99.90;;;;;;5011452;28;20241;-69
2023/10/22 10:21:36;;;;;;;0.43;0.20;;;14.30;99.90;;;;;;5011512;28;20188;-70
2023/10/22 10:24:18;;;;;;;0.60;0.30;;;14.30;99.90;;;;;;5010334;28;20291;-71
2023/10/22 10:26:52;;;;;;;0.70;0.30;;;14.20;99.90;;;;;;5011029;28;20583;-71
2023/10/22 10:29:19;;;;;;;1.40;0.40;;;14.10;99.90;;;;;;5011078;28;20184;-70
2023/10/22 10:31:50;;;;;;;0.30;0.27;;;14.10;99.90;;;;;;5011361;28;20606;-70
2023/10/22 10:34:39;;;;;;;1.17;0.40;;;13.90;99.90;;;;;;5010274;28;20209;-69
2023/10/22 10:37:13;;;;;;;1.47;1.10;;;13.80;99.90;;;;;;5010824;28;20180;-70
2023/10/22 10:39:46;;;;;;;0.80;0.50;;;13.70;99.90;;;;;;5011019;28;20195;-70
2023/10/22 10:42:13;;;;;;;1.60;0.30;;;13.60;99.90;;;;;;5010784;28;20262;-70
2023/10/22 10:44:57;;;;;;;1.13;0.57;;;13.50;99.90;;;;;;5010108;28;20223;-70
2023/10/22 10:47:27;;;;;;;0.50;0.30;;;13.50;99.90;;;;;;5010785;28;20216;-70
2023/10/22 10:50:06;;;;;;;1.90;0.50;;;13.50;99.90;;;;;;5010756;28;20204;-69
2023/10/22 10:52:34;;;;;;;0.83;0.47;;;13.50;99.90;;;;;;5009297;28;20242;-70
2023/10/22 10:55:17;;;;;;;0.53;0.40;;;13.60;99.90;;;;;;5009914;28;20533;-70
2023/10/22 10:57:46;;;;;;;0.87;0.30;;;13.60;99.90;;;;;;5010807;28;20207;-70
2023/10/22 11:00:19;;;;;;;2.53;0.40;;;13.60;99.90;;;;;;5010711;28;20173;-70
2023/10/22 11:02:47;;;;;;;0.90;0.40;;;13.60;99.90;;;;;;5010235;28;20180;-69
2023/10/22 11:05:14;;;;;;;1.33;0.40;;;13.70;99.90;;;;;;5009906;28;20239;-70
2023/10/22 11:07:42;;;;;;;0.87;0.30;;;13.70;99.90;;;;;;5009224;28;20181;-70
2023/10/22 11:10:14;;;;;;;2.00;0.70;;;13.70;99.90;;;;;;5009087;28;20708;-69
2023/10/22 11:12:40;;;;;;;3.17;0.80;;;13.90;99.90;;;;;;5010894;28;20250;-70
2023/10/22 11:15:10;;;;;;;1.47;0.50;;;14.00;99.90;;;;;;5009810;28;20315;-70
2023/10/22 11:17:46;;;;;;;1.23;0.33;;;14.00;99.90;;;;;;5010702;28;20184;-70
2023/10/22 11:20:15;;;;;;;1.40;0.53;;;14.10;99.90;;;;;;5010201;28;20696;-70
2023/10/22 11:22:41;;;;;;;2.33;0.43;;;14.10;99.90;;;;;;5009928;28;20363;-70
2023/10/22 11:25:09;;;;;;;2.27;0.47;;;14.10;99.90;;;;;;5009593;28;20771;-68
2023/10/22 11:27:39;;;;;;;2.67;0.40;;;13.90;99.90;;;;;;5010199;28;20556;-69
2023/10/22 11:30:06;;;;;;;0.40;0.40;;;13.80;99.90;;;;;;5010130;28;20179;-70
2023/10/22 11:32:34;;;;;;;0.50;0.30;;;13.60;99.90;;;;;;5010001;28;20246;-69
2023/10/22 11:35:04;;;;;;;2.73;0.40;;;13.50;99.90;;;;;;5008888;28;20323;-70
2023/10/22 11:37:30;;;;;;;3.90;0.60;;;13.40;99.90;;;;;;5008490;28;20180;-70
2023/10/22 11:39:57;;;;;;;1.93;1.03;;;13.40;99.90;;;;;;5009763;28;20387;-71
2023/10/22 11:42:30;;;;;;;0.30;0.30;;;13.40;99.90;;;;;;5009942;28;20189;-70
2023/10/22 11:44:56;;;;;;;1.43;0.50;;;13.30;99.90;;;;;;5008983;28;20286;-69
2023/10/22 11:47:31;;;;;;;0.93;0.40;;;13.40;99.90;;;;;;5009893;28;20319;-70
2023/10/22 11:49:58;;;;;;;3.27;0.77;;;13.40;99.90;;;;;;5009694;28;20184;-70
2023/10/22 11:52:38;;;;;;;0.83;0.40;;;13.60;99.90;;;;;;5009468;28;20609;-69
2023/10/22 11:55:04;;;;;;;1.37;0.83;;;13.90;99.90;;;;;;5017083;28;20263;-70
2023/10/22 11:57:30;;;;;;;1.30;0.50;;;14.00;99.90;;;;;;5009687;28;20541;-70
2023/10/22 11:59:56;;;;;;;2.87;0.60;;;14.30;99.90;;;;;;5009647;28;20199;-70
2023/10/22 12:02:22;;;;;;;2.33;0.60;;;14.50;99.90;;;;;;5009707;28;20650;-70
2023/10/22 12:04:47;;;;;;;0.90;0.40;;;14.60;99.90;;;;;;5008954;28;20223;-70
2023/10/22 12:07:13;;;;;;;0.57;0.40;;;14.60;99.90;;;;;;5009445;28;20180;-71
2023/10/22 12:09:39;;;;;;;1.20;0.30;;;14.60;99.90;;;;;;5009505;28;20684;-71
2023/10/22 12:12:05;;;;;;;1.90;0.80;;;14.60;99.90;;;;;;5009387;28;20189;-70
2023/10/22 12:14:31;;;;;;;1.50;0.40;;;14.70;99.90;;;;;;5008607;28;20294;-70
2023/10/22 12:16:57;;;;;;;1.50;0.50;;;14.70;99.90;;;;;;5008123;28;20246;-70
2023/10/22 12:19:23;;;;;;;2.23;0.40;;;14.80;99.90;;;;;;5009512;28;20181;-68
2023/10/22 12:21:49;;;;;;;0.80;0.30;;;15.00;99.90;;;;;;5009195;28;20188;-69
2023/10/22 12:24:14;;;;;;;1.23;0.50;;;15.20;99.90;;;;;;5008572;28;20216;-69
2023/10/22 12:26:40;;;;;;;2.83;0.50;;;15.30;99.90;;;;;;5009313;28;20182;-69
2023/10/22 12:29:06;;;;;;;1.30;0.40;;;15.40;99.90;;;;;;5024232;28;20215;-67
2023/10/22 12:31:31;;;;;;;0.93;0.40;;;15.50;99.90;;;;;;5008825;28;20685;-68
2023/10/22 12:34:03;;;;;;;2.37;0.30;;;15.40;99.90;;;;;;5026366;28;20204;-69
2023/10/22 12:36:29;;;;;;;0.50;0.30;;;15.40;99.90;;;;;;5009181;28;20184;-69
2023/10/22 12:38:54;;;;;;;1.90;0.40;;;15.20;99.90;;;;;;5008880;28;20211;-70
2023/10/22 12:41:23;;;;;;;0.87;0.40;;;15.20;99.90;;;;;;5009376;28;20596;-70
2023/10/22 12:43:49;;;;;;;1.77;0.40;;;15.10;99.90;;;;;;5008574;28;20202;-70
2023/10/22 12:46:15;;;;;;;1.33;0.40;;;15.10;99.90;;;;;;5011151;28;20188;-70
2023/10/22 12:48:40;;;;;;;2.03;0.60;;;15.20;99.90;;;;;;5013142;28;20185;-70